sensor_id;sensor_type;location;lat;lon;timestamp;temperature;humidity
68977;SHT31;56029;52.568;13.588;2023-01-24T00:01:40;0.07;97.96
68977;SHT31;56029;52.568;13.588;2023-01-24T00:04:06;0.16;98.13
68977;SHT31;56029;52.568;13.588;2023-01-24T00:06:32;0.20;97.98
68977;SHT31;56029;52.568;13.588;2023-01-24T00:08:57;0.12;97.00
68977;SHT31;56029;52.568;13.588;2023-01-24T00:11:23;0.05;97.23
68977;SHT31;56029;52.568;13.588;2023-01-24T00:13:48;0.03;97.63
68977;SHT31;56029;52.568;13.588;2023-01-24T00:16:16;0.01;96.68
68977;SHT31;56029;52.568;13.588;2023-01-24T00:18:42;0.16;96.82
68977;SHT31;56029;52.568;13.588;2023-01-24T00:21:11;0.07;96.66
68977;SHT31;56029;52.568;13.588;2023-01-24T00:23:45;0.06;96.67
68977;SHT31;56029;52.568;13.588;2023-01-24T00:26:12;0.05;96.12
68977;SHT31;56029;52.568;13.588;2023-01-24T00:28:38;0.01;96.10
68977;SHT31;56029;52.568;13.588;2023-01-24T00:31:04;-0.06;95.67
68977;SHT31;56029;52.568;13.588;2023-01-24T00:33:31;-0.02;95.70
68977;SHT31;56029;52.568;13.588;2023-01-24T00:35:57;-0.06;95.17
68977;SHT31;56029;52.568;13.588;2023-01-24T00:38:22;-0.11;94.94
68977;SHT31;56029;52.568;13.588;2023-01-24T00:40:49;-0.08;95.42
68977;SHT31;56029;52.568;13.588;2023-01-24T00:43:14;-0.04;95.94
68977;SHT31;56029;52.568;13.588;2023-01-24T00:45:40;-0.04;95.78
68977;SHT31;56029;52.568;13.588;2023-01-24T00:48:07;-0.05;95.89
68977;SHT31;56029;52.568;13.588;2023-01-24T00:50:33;-0.05;95.75
68977;SHT31;56029;52.568;13.588;2023-01-24T00:53:00;-0.08;95.66
68977;SHT31;56029;52.568;13.588;2023-01-24T00:55:26;-0.11;95.86
68977;SHT31;56029;52.568;13.588;2023-01-24T00:57:51;-0.16;95.90
68977;SHT31;56029;52.568;13.588;2023-01-24T01:00:17;-0.15;96.05
68977;SHT31;56029;52.568;13.588;2023-01-24T01:02:43;-0.12;96.25
68977;SHT31;56029;52.568;13.588;2023-01-24T01:05:09;-0.19;96.12
68977;SHT31;56029;52.568;13.588;2023-01-24T01:07:35;-0.11;96.57
68977;SHT31;56029;52.568;13.588;2023-01-24T01:10:01;-0.15;96.29
68977;SHT31;56029;52.568;13.588;2023-01-24T01:12:26;-0.19;96.57
68977;SHT31;56029;52.568;13.588;2023-01-24T01:14:52;-0.21;96.35
68977;SHT31;56029;52.568;13.588;2023-01-24T01:17:18;-0.16;96.24
68977;SHT31;56029;52.568;13.588;2023-01-24T01:19:43;-0.16;96.39
68977;SHT31;56029;52.568;13.588;2023-01-24T01:22:09;-0.16;96.16
68977;SHT31;56029;52.568;13.588;2023-01-24T01:24:34;-0.22;96.16
68977;SHT31;56029;52.568;13.588;2023-01-24T01:27:00;-0.23;96.25
68977;SHT31;56029;52.568;13.588;2023-01-24T01:29:26;-0.19;96.44
68977;SHT31;56029;52.568;13.588;2023-01-24T01:31:51;-0.16;96.52
68977;SHT31;56029;52.568;13.588;2023-01-24T01:34:17;-0.08;96.40
68977;SHT31;56029;52.568;13.588;2023-01-24T01:36:43;-0.12;96.18
68977;SHT31;56029;52.568;13.588;2023-01-24T01:39:09;-0.09;96.52
68977;SHT31;56029;52.568;13.588;2023-01-24T01:41:35;-0.16;96.58
68977;SHT31;56029;52.568;13.588;2023-01-24T01:44:20;-0.21;95.52
68977;SHT31;56029;52.568;13.588;2023-01-24T01:47:21;-0.19;95.54
68977;SHT31;56029;52.568;13.588;2023-01-24T01:52:40;-0.26;95.79
68977;SHT31;56029;52.568;13.588;2023-01-24T01:55:15;-0.22;96.26
68977;SHT31;56029;52.568;13.588;2023-01-24T01:57:42;-0.22;95.37
68977;SHT31;56029;52.568;13.588;2023-01-24T02:00:12;-0.25;95.30
68977;SHT31;56029;52.568;13.588;2023-01-24T02:02:40;-0.21;95.77
68977;SHT31;56029;52.568;13.588;2023-01-24T02:05:10;-0.12;96.07
68977;SHT31;56029;52.568;13.588;2023-01-24T02:07:41;-0.19;95.70
68977;SHT31;56029;52.568;13.588;2023-01-24T02:10:10;-0.15;95.50
68977;SHT31;56029;52.568;13.588;2023-01-24T02:12:39;-0.11;95.57
68977;SHT31;56029;52.568;13.588;2023-01-24T02:15:11;-0.11;95.10
68977;SHT31;56029;52.568;13.588;2023-01-24T02:17:56;-0.23;93.52
68977;SHT31;56029;52.568;13.588;2023-01-24T02:20:40;-0.22;93.08
68977;SHT31;56029;52.568;13.588;2023-01-24T02:28:39;-0.25;93.89
68977;SHT31;56029;52.568;13.588;2023-01-24T02:31:05;-0.37;92.70
68977;SHT31;56029;52.568;13.588;2023-01-24T02:33:32;-0.36;92.84
68977;SHT31;56029;52.568;13.588;2023-01-24T02:36:28;-0.33;92.99
68977;SHT31;56029;52.568;13.588;2023-01-24T02:39:06;-0.43;92.27
68977;SHT31;56029;52.568;13.588;2023-01-24T02:41:43;-0.37;92.73
68977;SHT31;56029;52.568;13.588;2023-01-24T02:44:12;-0.32;92.64
68977;SHT31;56029;52.568;13.588;2023-01-24T02:46:43;-0.33;91.98
68977;SHT31;56029;52.568;13.588;2023-01-24T02:49:09;-0.35;92.01
68977;SHT31;56029;52.568;13.588;2023-01-24T02:51:35;-0.36;92.69
68977;SHT31;56029;52.568;13.588;2023-01-24T02:54:19;-0.32;92.96
68977;SHT31;56029;52.568;13.588;2023-01-24T02:56:45;-0.35;92.57
68977;SHT31;56029;52.568;13.588;2023-01-24T02:59:29;-0.42;92.64
68977;SHT31;56029;52.568;13.588;2023-01-24T03:01:55;-0.42;92.64
68977;SHT31;56029;52.568;13.588;2023-01-24T03:04:21;-0.48;92.35
68977;SHT31;56029;52.568;13.588;2023-01-24T03:06:46;-0.42;92.87
68977;SHT31;56029;52.568;13.588;2023-01-24T03:09:14;-0.48;92.57
68977;SHT31;56029;52.568;13.588;2023-01-24T03:12:00;-0.42;92.82
68977;SHT31;56029;52.568;13.588;2023-01-24T03:14:45;-0.45;92.67
68977;SHT31;56029;52.568;13.588;2023-01-24T03:17:29;-0.46;92.99
68977;SHT31;56029;52.568;13.588;2023-01-24T03:20:13;-0.46;93.04
68977;SHT31;56029;52.568;13.588;2023-01-24T03:22:57;-0.49;92.78
68977;SHT31;56029;52.568;13.588;2023-01-24T03:25:41;-0.53;93.18
68977;SHT31;56029;52.568;13.588;2023-01-24T03:28:25;-0.46;93.24
68977;SHT31;56029;52.568;13.588;2023-01-24T03:31:09;-0.37;93.65
68977;SHT31;56029;52.568;13.588;2023-01-24T03:33:53;-0.43;92.97
68977;SHT31;56029;52.568;13.588;2023-01-24T03:36:38;-0.48;92.92
68977;SHT31;56029;52.568;13.588;2023-01-24T03:39:03;-0.43;93.37
68977;SHT31;56029;52.568;13.588;2023-01-24T03:41:47;-0.48;93.27
68977;SHT31;56029;52.568;13.588;2023-01-24T03:44:13;-0.49;93.59
68977;SHT31;56029;52.568;13.588;2023-01-24T03:46:38;-0.48;93.28
68977;SHT31;56029;52.568;13.588;2023-01-24T03:49:06;-0.50;93.50
68977;SHT31;56029;52.568;13.588;2023-01-24T03:51:32;-0.50;93.75
68977;SHT31;56029;52.568;13.588;2023-01-24T03:54:16;-0.49;93.87
68977;SHT31;56029;52.568;13.588;2023-01-24T03:56:42;-0.43;94.48
68977;SHT31;56029;52.568;13.588;2023-01-24T03:59:08;-0.37;94.56
68977;SHT31;56029;52.568;13.588;2023-01-24T04:01:33;-0.42;93.56
68977;SHT31;56029;52.568;13.588;2023-01-24T04:03:59;-0.36;93.94
68977;SHT31;56029;52.568;13.588;2023-01-24T04:06:25;-0.37;94.05
68977;SHT31;56029;52.568;13.588;2023-01-24T04:08:50;-0.46;93.52
68977;SHT31;56029;52.568;13.588;2023-01-24T04:11:16;-0.49;94.01
68977;SHT31;56029;52.568;13.588;2023-01-24T04:13:42;-0.53;93.67
68977;SHT31;56029;52.568;13.588;2023-01-24T04:16:08;-0.39;94.06
68977;SHT31;56029;52.568;13.588;2023-01-24T04:18:34;-0.39;94.41
68977;SHT31;56029;52.568;13.588;2023-01-24T04:21:05;-0.37;94.60
68977;SHT31;56029;52.568;13.588;2023-01-24T04:23:30;-0.48;94.34
68977;SHT31;56029;52.568;13.588;2023-01-24T04:25:56;-0.46;94.36
68977;SHT31;56029;52.568;13.588;2023-01-24T04:28:25;-0.43;94.58
68977;SHT31;56029;52.568;13.588;2023-01-24T04:31:01;-0.40;94.98
68977;SHT31;56029;52.568;13.588;2023-01-24T04:33:27;-0.42;94.24
68977;SHT31;56029;52.568;13.588;2023-01-24T04:35:57;-0.49;94.58
68977;SHT31;56029;52.568;13.588;2023-01-24T04:38:23;-0.45;94.67
68977;SHT31;56029;52.568;13.588;2023-01-24T04:40:57;-0.39;94.84
68977;SHT31;56029;52.568;13.588;2023-01-24T04:43:23;-0.49;94.36
68977;SHT31;56029;52.568;13.588;2023-01-24T04:45:49;-0.46;94.67
68977;SHT31;56029;52.568;13.588;2023-01-24T04:48:14;-0.48;94.34
68977;SHT31;56029;52.568;13.588;2023-01-24T04:50:40;-0.52;94.63
68977;SHT31;56029;52.568;13.588;2023-01-24T04:53:05;-0.48;94.76
68977;SHT31;56029;52.568;13.588;2023-01-24T04:55:31;-0.39;94.97
68977;SHT31;56029;52.568;13.588;2023-01-24T04:57:56;-0.43;94.57
68977;SHT31;56029;52.568;13.588;2023-01-24T05:00:22;-0.37;95.00
68977;SHT31;56029;52.568;13.588;2023-01-24T05:02:50;-0.46;94.99
68977;SHT31;56029;52.568;13.588;2023-01-24T05:05:16;-0.39;95.01
68977;SHT31;56029;52.568;13.588;2023-01-24T05:07:42;-0.33;94.85
68977;SHT31;56029;52.568;13.588;2023-01-24T05:10:08;-0.37;94.78
68977;SHT31;56029;52.568;13.588;2023-01-24T05:12:33;-0.36;95.19
68977;SHT31;56029;52.568;13.588;2023-01-24T05:14:59;-0.33;95.03
68977;SHT31;56029;52.568;13.588;2023-01-24T05:17:24;-0.40;95.02
68977;SHT31;56029;52.568;13.588;2023-01-24T05:19:50;-0.46;94.83
68977;SHT31;56029;52.568;13.588;2023-01-24T05:22:15;-0.54;94.80
68977;SHT31;56029;52.568;13.588;2023-01-24T05:24:41;-0.53;95.23
68977;SHT31;56029;52.568;13.588;2023-01-24T05:27:06;-0.52;95.52
68977;SHT31;56029;52.568;13.588;2023-01-24T05:29:32;-0.46;95.42
68977;SHT31;56029;52.568;13.588;2023-01-24T05:31:57;-0.43;94.77
68977;SHT31;56029;52.568;13.588;2023-01-24T05:34:23;-0.42;94.73
68977;SHT31;56029;52.568;13.588;2023-01-24T05:36:48;-0.48;95.24
68977;SHT31;56029;52.568;13.588;2023-01-24T05:39:14;-0.49;95.22
68977;SHT31;56029;52.568;13.588;2023-01-24T05:41:40;-0.43;95.20
68977;SHT31;56029;52.568;13.588;2023-01-24T05:44:06;-0.50;94.93
68977;SHT31;56029;52.568;13.588;2023-01-24T05:46:31;-0.52;95.27
68977;SHT31;56029;52.568;13.588;2023-01-24T05:48:57;-0.49;95.32
68977;SHT31;56029;52.568;13.588;2023-01-24T05:51:22;-0.53;95.09
68977;SHT31;56029;52.568;13.588;2023-01-24T05:53:48;-0.45;95.48
68977;SHT31;56029;52.568;13.588;2023-01-24T05:56:17;-0.46;95.31
68977;SHT31;56029;52.568;13.588;2023-01-24T05:58:44;-0.43;95.37
68977;SHT31;56029;52.568;13.588;2023-01-24T06:01:12;-0.39;95.77
68977;SHT31;56029;52.568;13.588;2023-01-24T06:03:40;-0.42;94.89
68977;SHT31;56029;52.568;13.588;2023-01-24T06:06:07;-0.43;95.46
68977;SHT31;56029;52.568;13.588;2023-01-24T06:08:33;-0.33;95.93
68977;SHT31;56029;52.568;13.588;2023-01-24T06:11:07;-0.36;95.21
68977;SHT31;56029;52.568;13.588;2023-01-24T06:13:33;-0.39;95.43
68977;SHT31;56029;52.568;13.588;2023-01-24T06:16:06;-0.37;95.48
68977;SHT31;56029;52.568;13.588;2023-01-24T06:18:33;-0.37;95.10
68977;SHT31;56029;52.568;13.588;2023-01-24T06:21:04;-0.43;95.10
68977;SHT31;56029;52.568;13.588;2023-01-24T06:23:30;-0.50;95.63
68977;SHT31;56029;52.568;13.588;2023-01-24T06:25:55;-0.42;95.92
68977;SHT31;56029;52.568;13.588;2023-01-24T06:28:21;-0.42;96.07
68977;SHT31;56029;52.568;13.588;2023-01-24T06:30:56;-0.36;95.97
68977;SHT31;56029;52.568;13.588;2023-01-24T06:33:37;-0.43;95.80
68977;SHT31;56029;52.568;13.588;2023-01-24T06:36:29;-0.40;95.85
68977;SHT31;56029;52.568;13.588;2023-01-24T06:38:57;-0.40;95.20
68977;SHT31;56029;52.568;13.588;2023-01-24T06:41:23;-0.32;95.26
68977;SHT31;56029;52.568;13.588;2023-01-24T06:43:49;-0.35;95.24
68977;SHT31;56029;52.568;13.588;2023-01-24T06:46:15;-0.36;95.54
68977;SHT31;56029;52.568;13.588;2023-01-24T06:48:44;-0.32;94.62
68977;SHT31;56029;52.568;13.588;2023-01-24T06:51:11;-0.39;94.48
68977;SHT31;56029;52.568;13.588;2023-01-24T06:53:38;-0.32;94.62
68977;SHT31;56029;52.568;13.588;2023-01-24T06:56:04;-0.37;94.75
68977;SHT31;56029;52.568;13.588;2023-01-24T06:58:30;-0.36;95.29
68977;SHT31;56029;52.568;13.588;2023-01-24T07:00:55;-0.36;94.87
68977;SHT31;56029;52.568;13.588;2023-01-24T07:03:21;-0.36;95.00
68977;SHT31;56029;52.568;13.588;2023-01-24T07:05:47;-0.42;95.02
68977;SHT31;56029;52.568;13.588;2023-01-24T07:08:13;-0.40;94.98
68977;SHT31;56029;52.568;13.588;2023-01-24T07:10:38;-0.45;94.66
68977;SHT31;56029;52.568;13.588;2023-01-24T07:13:04;-0.39;94.75
68977;SHT31;56029;52.568;13.588;2023-01-24T07:15:30;-0.50;94.45
68977;SHT31;56029;52.568;13.588;2023-01-24T07:17:55;-0.46;94.48
68977;SHT31;56029;52.568;13.588;2023-01-24T07:20:21;-0.46;94.65
68977;SHT31;56029;52.568;13.588;2023-01-24T07:22:47;-0.43;94.41
68977;SHT31;56029;52.568;13.588;2023-01-24T07:25:18;-0.37;94.81
68977;SHT31;56029;52.568;13.588;2023-01-24T07:27:45;-0.35;94.72
68977;SHT31;56029;52.568;13.588;2023-01-24T07:30:12;-0.30;94.89
68977;SHT31;56029;52.568;13.588;2023-01-24T07:32:38;-0.36;94.83
68977;SHT31;56029;52.568;13.588;2023-01-24T07:35:05;-0.25;94.88
68977;SHT31;56029;52.568;13.588;2023-01-24T07:37:31;-0.29;94.50
68977;SHT31;56029;52.568;13.588;2023-01-24T07:39:56;-0.40;93.13
68977;SHT31;56029;52.568;13.588;2023-01-24T07:42:22;-0.35;93.08
68977;SHT31;56029;52.568;13.588;2023-01-24T07:44:47;-0.36;93.68
68977;SHT31;56029;52.568;13.588;2023-01-24T07:47:13;-0.32;93.05
68977;SHT31;56029;52.568;13.588;2023-01-24T07:49:38;-0.45;92.50
68977;SHT31;56029;52.568;13.588;2023-01-24T07:52:04;-0.48;93.07
68977;SHT31;56029;52.568;13.588;2023-01-24T07:54:29;-0.49;93.42
68977;SHT31;56029;52.568;13.588;2023-01-24T07:56:55;-0.43;92.86
68977;SHT31;56029;52.568;13.588;2023-01-24T07:59:21;-0.48;92.41
68977;SHT31;56029;52.568;13.588;2023-01-24T08:01:46;-0.43;92.13
68977;SHT31;56029;52.568;13.588;2023-01-24T08:04:12;-0.53;92.12
68977;SHT31;56029;52.568;13.588;2023-01-24T08:06:41;-0.45;92.47
68977;SHT31;56029;52.568;13.588;2023-01-24T08:09:27;-0.40;93.19
68977;SHT31;56029;52.568;13.588;2023-01-24T08:11:52;-0.40;92.79
68977;SHT31;56029;52.568;13.588;2023-01-24T08:14:18;-0.46;92.82
68977;SHT31;56029;52.568;13.588;2023-01-24T08:16:44;-0.43;92.69
68977;SHT31;56029;52.568;13.588;2023-01-24T08:19:09;-0.48;91.69
68977;SHT31;56029;52.568;13.588;2023-01-24T08:21:35;-0.43;91.75
68977;SHT31;56029;52.568;13.588;2023-01-24T08:24:00;-0.43;91.48
68977;SHT31;56029;52.568;13.588;2023-01-24T08:26:26;-0.40;91.95
68977;SHT31;56029;52.568;13.588;2023-01-24T08:28:51;-0.29;92.06
68977;SHT31;56029;52.568;13.588;2023-01-24T08:31:17;-0.42;91.89
68977;SHT31;56029;52.568;13.588;2023-01-24T08:33:42;-0.33;92.20
68977;SHT31;56029;52.568;13.588;2023-01-24T08:36:08;-0.39;91.34
68977;SHT31;56029;52.568;13.588;2023-01-24T08:38:33;-0.36;91.42
68977;SHT31;56029;52.568;13.588;2023-01-24T08:41:03;-0.37;91.56
68977;SHT31;56029;52.568;13.588;2023-01-24T08:43:29;-0.40;91.53
68977;SHT31;56029;52.568;13.588;2023-01-24T08:45:54;-0.36;91.43
68977;SHT31;56029;52.568;13.588;2023-01-24T08:48:22;-0.42;91.31
68977;SHT31;56029;52.568;13.588;2023-01-24T08:50:48;-0.39;91.59
68977;SHT31;56029;52.568;13.588;2023-01-24T08:53:14;-0.29;92.02
68977;SHT31;56029;52.568;13.588;2023-01-24T08:55:40;-0.15;92.00
68977;SHT31;56029;52.568;13.588;2023-01-24T08:58:06;-0.19;91.37
68977;SHT31;56029;52.568;13.588;2023-01-24T09:00:32;-0.11;91.64
68977;SHT31;56029;52.568;13.588;2023-01-24T09:02:58;-0.19;91.40
68977;SHT31;56029;52.568;13.588;2023-01-24T09:05:29;-0.08;91.13
68977;SHT31;56029;52.568;13.588;2023-01-24T09:07:55;-0.11;91.27
68977;SHT31;56029;52.568;13.588;2023-01-24T09:10:21;-0.14;90.69
68977;SHT31;56029;52.568;13.588;2023-01-24T09:12:46;-0.09;90.72
68977;SHT31;56029;52.568;13.588;2023-01-24T09:15:12;-0.08;90.42
68977;SHT31;56029;52.568;13.588;2023-01-24T09:17:38;-0.11;90.19
68977;SHT31;56029;52.568;13.588;2023-01-24T09:20:05;-0.14;91.14
68977;SHT31;56029;52.568;13.588;2023-01-24T09:22:32;-0.05;90.66
68977;SHT31;56029;52.568;13.588;2023-01-24T09:24:57;0.07;91.01
68977;SHT31;56029;52.568;13.588;2023-01-24T09:27:23;0.02;90.65
68977;SHT31;56029;52.568;13.588;2023-01-24T09:29:48;0.03;91.00
68977;SHT31;56029;52.568;13.588;2023-01-24T09:32:14;0.23;91.32
68977;SHT31;56029;52.568;13.588;2023-01-24T09:34:39;0.25;91.12
68977;SHT31;56029;52.568;13.588;2023-01-24T09:37:18;0.17;90.93
68977;SHT31;56029;52.568;13.588;2023-01-24T09:39:45;0.07;91.23
68977;SHT31;56029;52.568;13.588;2023-01-24T09:42:31;0.06;91.16
68977;SHT31;56029;52.568;13.588;2023-01-24T09:45:07;0.20;92.52
68977;SHT31;56029;52.568;13.588;2023-01-24T09:47:44;0.27;90.96
68977;SHT31;56029;52.568;13.588;2023-01-24T09:53:02;0.29;90.32
68977;SHT31;56029;52.568;13.588;2023-01-24T09:55:32;0.34;90.49
68977;SHT31;56029;52.568;13.588;2023-01-24T09:58:04;0.40;90.98
68977;SHT31;56029;52.568;13.588;2023-01-24T10:00:36;0.36;90.26
68977;SHT31;56029;52.568;13.588;2023-01-24T10:03:02;0.47;90.07
68977;SHT31;56029;52.568;13.588;2023-01-24T10:05:34;0.64;90.45
68977;SHT31;56029;52.568;13.588;2023-01-24T10:08:06;0.53;90.03
68977;SHT31;56029;52.568;13.588;2023-01-24T10:16:45;0.39;90.14
68977;SHT31;56029;52.568;13.588;2023-01-24T10:25:05;0.75;90.02
68977;SHT31;56029;52.568;13.588;2023-01-24T10:27:41;0.73;89.91
68977;SHT31;56029;52.568;13.588;2023-01-24T10:30:18;0.78;89.86
68977;SHT31;56029;52.568;13.588;2023-01-24T10:32:47;0.71;89.42
68977;SHT31;56029;52.568;13.588;2023-01-24T10:35:19;0.80;89.85
68977;SHT31;56029;52.568;13.588;2023-01-24T10:37:50;0.65;89.30
68977;SHT31;56029;52.568;13.588;2023-01-24T10:40:22;0.56;89.90
68977;SHT31;56029;52.568;13.588;2023-01-24T10:42:48;0.47;90.12
68977;SHT31;56029;52.568;13.588;2023-01-24T10:48:31;0.39;90.67
68977;SHT31;56029;52.568;13.588;2023-01-24T10:51:29;0.49;90.55
68977;SHT31;56029;52.568;13.588;2023-01-24T10:54:00;0.52;90.36
68977;SHT31;56029;52.568;13.588;2023-01-24T10:56:26;0.68;90.67
68977;SHT31;56029;52.568;13.588;2023-01-24T11:01:23;0.63;90.23
68977;SHT31;56029;52.568;13.588;2023-01-24T11:03:50;0.68;90.72
68977;SHT31;56029;52.568;13.588;2023-01-24T11:06:35;0.70;90.71
68977;SHT31;56029;52.568;13.588;2023-01-24T11:09:13;0.80;90.01
68977;SHT31;56029;52.568;13.588;2023-01-24T11:11:43;0.78;90.15
68977;SHT31;56029;52.568;13.588;2023-01-24T11:14:17;0.61;89.76
68977;SHT31;56029;52.568;13.588;2023-01-24T11:16:47;0.73;89.90
68977;SHT31;56029;52.568;13.588;2023-01-24T11:19:28;0.74;90.01
68977;SHT31;56029;52.568;13.588;2023-01-24T11:22:43;0.58;90.06
68977;SHT31;56029;52.568;13.588;2023-01-24T11:24:45;0.70;89.81
68977;SHT31;56029;52.568;13.588;2023-01-24T11:27:19;0.81;90.48
68977;SHT31;56029;52.568;13.588;2023-01-24T11:30:04;0.84;89.68
68977;SHT31;56029;52.568;13.588;2023-01-24T11:37:56;0.89;89.91
68977;SHT31;56029;52.568;13.588;2023-01-24T11:43:43;0.99;89.56
68977;SHT31;56029;52.568;13.588;2023-01-24T11:46:30;0.83;89.53
68977;SHT31;56029;52.568;13.588;2023-01-24T11:54:42;1.12;90.30
68977;SHT31;56029;52.568;13.588;2023-01-24T11:57:25;1.12;89.73
68977;SHT31;56029;52.568;13.588;2023-01-24T12:06:13;0.89;90.19
68977;SHT31;56029;52.568;13.588;2023-01-24T12:11:52;0.89;90.07
68977;SHT31;56029;52.568;13.588;2023-01-24T12:17:37;0.95;90.00
68977;SHT31;56029;52.568;13.588;2023-01-24T12:23:01;1.08;89.71
68977;SHT31;56029;52.568;13.588;2023-01-24T12:25:34;1.21;89.71
68977;SHT31;56029;52.568;13.588;2023-01-24T12:28:04;1.19;89.94
68977;SHT31;56029;52.568;13.588;2023-01-24T12:30:46;0.89;89.79
68977;SHT31;56029;52.568;13.588;2023-01-24T12:33:23;0.94;89.78
68977;SHT31;56029;52.568;13.588;2023-01-24T12:36:16;1.05;89.71
68977;SHT31;56029;52.568;13.588;2023-01-24T12:38:49;1.16;89.91
68977;SHT31;56029;52.568;13.588;2023-01-24T12:41:43;1.15;90.15
68977;SHT31;56029;52.568;13.588;2023-01-24T12:44:22;1.19;89.93
68977;SHT31;56029;52.568;13.588;2023-01-24T12:47:07;1.16;89.90
68977;SHT31;56029;52.568;13.588;2023-01-24T12:50:00;1.18;90.21
68977;SHT31;56029;52.568;13.588;2023-01-24T12:52:34;1.12;90.31
68977;SHT31;56029;52.568;13.588;2023-01-24T12:57:40;0.89;90.53
68977;SHT31;56029;52.568;13.588;2023-01-24T13:00:18;0.88;90.79
68977;SHT31;56029;52.568;13.588;2023-01-24T13:03:20;0.99;90.68
68977;SHT31;56029;52.568;13.588;2023-01-24T13:06:09;1.05;90.51
68977;SHT31;56029;52.568;13.588;2023-01-24T13:08:52;0.96;90.84
68977;SHT31;56029;52.568;13.588;2023-01-24T13:11:25;1.09;90.79
68977;SHT31;56029;52.568;13.588;2023-01-24T13:22:22;0.98;90.00
68977;SHT31;56029;52.568;13.588;2023-01-24T13:27:53;0.95;90.66
68977;SHT31;56029;52.568;13.588;2023-01-24T13:30:41;0.99;90.54
68977;SHT31;56029;52.568;13.588;2023-01-24T13:33:13;1.02;90.32
68977;SHT31;56029;52.568;13.588;2023-01-24T13:35:46;0.95;90.68
68977;SHT31;56029;52.568;13.588;2023-01-24T13:38:18;0.99;90.32
68977;SHT31;56029;52.568;13.588;2023-01-24T13:40:58;1.13;90.68
68977;SHT31;56029;52.568;13.588;2023-01-24T13:46:13;1.12;90.73
68977;SHT31;56029;52.568;13.588;2023-01-24T13:54:00;1.12;90.02
68977;SHT31;56029;52.568;13.588;2023-01-24T13:56:27;1.13;90.40
68977;SHT31;56029;52.568;13.588;2023-01-24T13:58:53;1.12;90.48
68977;SHT31;56029;52.568;13.588;2023-01-24T14:01:19;1.11;90.55
68977;SHT31;56029;52.568;13.588;2023-01-24T14:03:57;0.98;90.84
68977;SHT31;56029;52.568;13.588;2023-01-24T14:06:25;1.01;91.09
68977;SHT31;56029;52.568;13.588;2023-01-24T14:09:02;1.09;91.01
68977;SHT31;56029;52.568;13.588;2023-01-24T14:11:34;1.01;90.48
68977;SHT31;56029;52.568;13.588;2023-01-24T14:14:26;0.88;91.02
68977;SHT31;56029;52.568;13.588;2023-01-24T14:19:22;0.99;91.17
68977;SHT31;56029;52.568;13.588;2023-01-24T14:27:26;0.96;91.09
68977;SHT31;56029;52.568;13.588;2023-01-24T14:35:47;0.98;91.11
68977;SHT31;56029;52.568;13.588;2023-01-24T14:38:15;0.88;91.44
68977;SHT31;56029;52.568;13.588;2023-01-24T14:40:41;0.89;91.46
68977;SHT31;56029;52.568;13.588;2023-01-24T14:43:09;0.89;91.82
68977;SHT31;56029;52.568;13.588;2023-01-24T14:45:35;0.89;91.94
68977;SHT31;56029;52.568;13.588;2023-01-24T14:48:06;0.95;91.84
68977;SHT31;56029;52.568;13.588;2023-01-24T14:50:35;1.02;92.22
68977;SHT31;56029;52.568;13.588;2023-01-24T14:53:04;1.09;91.39
68977;SHT31;56029;52.568;13.588;2023-01-24T14:55:47;0.99;91.72
68977;SHT31;56029;52.568;13.588;2023-01-24T14:58:23;0.85;91.90
68977;SHT31;56029;52.568;13.588;2023-01-24T15:00:51;0.85;92.39
68977;SHT31;56029;52.568;13.588;2023-01-24T15:03:20;0.83;92.48
68977;SHT31;56029;52.568;13.588;2023-01-24T15:05:55;0.77;92.31
68977;SHT31;56029;52.568;13.588;2023-01-24T15:08:21;0.92;92.82
68977;SHT31;56029;52.568;13.588;2023-01-24T15:11:18;1.01;92.13
68977;SHT31;56029;52.568;13.588;2023-01-24T15:13:51;0.89;91.82
68977;SHT31;56029;52.568;13.588;2023-01-24T15:16:23;0.89;92.02
68977;SHT31;56029;52.568;13.588;2023-01-24T15:18:52;0.96;92.20
68977;SHT31;56029;52.568;13.588;2023-01-24T15:21:37;0.89;91.82
68977;SHT31;56029;52.568;13.588;2023-01-24T15:24:03;0.87;92.23
68977;SHT31;56029;52.568;13.588;2023-01-24T15:28:54;0.91;92.54
68977;SHT31;56029;52.568;13.588;2023-01-24T15:31:22;0.88;92.61
68977;SHT31;56029;52.568;13.588;2023-01-24T15:33:57;0.94;92.82
68977;SHT31;56029;52.568;13.588;2023-01-24T15:36:25;0.89;93.27
68977;SHT31;56029;52.568;13.588;2023-01-24T15:38:53;0.94;93.16
68977;SHT31;56029;52.568;13.588;2023-01-24T15:44:07;0.94;93.57
68977;SHT31;56029;52.568;13.588;2023-01-24T15:46:35;0.99;93.42
68977;SHT31;56029;52.568;13.588;2023-01-24T15:49:39;0.99;93.28
68977;SHT31;56029;52.568;13.588;2023-01-24T15:54:39;0.85;93.16
68977;SHT31;56029;52.568;13.588;2023-01-24T15:57:20;0.96;93.67
68977;SHT31;56029;52.568;13.588;2023-01-24T15:59:51;0.85;93.58
68977;SHT31;56029;52.568;13.588;2023-01-24T16:02:16;0.74;94.14
68977;SHT31;56029;52.568;13.588;2023-01-24T16:04:42;0.71;93.98
68977;SHT31;56029;52.568;13.588;2023-01-24T16:07:10;0.74;94.22
68977;SHT31;56029;52.568;13.588;2023-01-24T16:09:35;0.81;94.32
68977;SHT31;56029;52.568;13.588;2023-01-24T16:12:01;0.70;93.65
68977;SHT31;56029;52.568;13.588;2023-01-24T16:14:27;0.78;93.89
68977;SHT31;56029;52.568;13.588;2023-01-24T16:16:55;0.81;93.88
68977;SHT31;56029;52.568;13.588;2023-01-24T16:19:22;0.83;93.91
68977;SHT31;56029;52.568;13.588;2023-01-24T16:21:49;0.81;93.92
68977;SHT31;56029;52.568;13.588;2023-01-24T16:24:15;0.84;94.30
68977;SHT31;56029;52.568;13.588;2023-01-24T16:26:44;0.74;93.80
68977;SHT31;56029;52.568;13.588;2023-01-24T16:29:13;0.81;94.06
68977;SHT31;56029;52.568;13.588;2023-01-24T16:31:39;0.78;94.35
68977;SHT31;56029;52.568;13.588;2023-01-24T16:34:05;0.80;94.58
68977;SHT31;56029;52.568;13.588;2023-01-24T16:36:32;0.70;94.75
68977;SHT31;56029;52.568;13.588;2023-01-24T16:38:58;0.71;95.10
68977;SHT31;56029;52.568;13.588;2023-01-24T16:41:23;0.77;95.03
68977;SHT31;56029;52.568;13.588;2023-01-24T16:43:49;0.77;95.09
68977;SHT31;56029;52.568;13.588;2023-01-24T16:46:19;0.67;95.07
68977;SHT31;56029;52.568;13.588;2023-01-24T16:48:46;0.71;94.79
68977;SHT31;56029;52.568;13.588;2023-01-24T16:51:13;0.73;95.17
68977;SHT31;56029;52.568;13.588;2023-01-24T16:53:39;0.74;94.76
68977;SHT31;56029;52.568;13.588;2023-01-24T16:56:05;0.78;95.15
68977;SHT31;56029;52.568;13.588;2023-01-24T16:58:32;0.67;95.22
68977;SHT31;56029;52.568;13.588;2023-01-24T17:00:57;0.67;94.72
68977;SHT31;56029;52.568;13.588;2023-01-24T17:03:23;0.70;94.53
68977;SHT31;56029;52.568;13.588;2023-01-24T17:05:49;0.60;94.61
68977;SHT31;56029;52.568;13.588;2023-01-24T17:08:15;0.63;94.70
68977;SHT31;56029;52.568;13.588;2023-01-24T17:10:41;0.70;94.72
68977;SHT31;56029;52.568;13.588;2023-01-24T17:13:07;0.71;94.68
68977;SHT31;56029;52.568;13.588;2023-01-24T17:15:35;0.68;94.34
68977;SHT31;56029;52.568;13.588;2023-01-24T17:18:01;0.71;94.75
68977;SHT31;56029;52.568;13.588;2023-01-24T17:20:26;0.68;94.88
68977;SHT31;56029;52.568;13.588;2023-01-24T17:22:52;0.64;95.21